createdAt,value
2022-10-15T00:00:28.890Z,0.00
2022-10-15T00:01:39.527Z,0.00
2022-10-15T00:06:13.681Z,0.00
2022-10-15T00:06:27.479Z,0.00
2022-10-15T00:10:07.960Z,0.00
2022-10-15T00:10:21.214Z,0.00
2022-10-15T00:11:44.561Z,0.00
2022-10-15T00:12:32.115Z,0.00
2022-10-15T00:13:42.705Z,0.00
2022-10-15T00:14:17.995Z,0.00
2022-10-15T00:15:24.031Z,0.00
2022-10-15T00:21:24.122Z,0.00
2022-10-15T00:22:35.178Z,0.00
2022-10-15T00:24:30.845Z,0.00
2022-10-15T00:24:45.628Z,0.00
2022-10-15T00:25:58.816Z,0.00
2022-10-15T00:45:51.585Z,0.00
2022-10-15T00:46:09.496Z,0.00
2022-10-15T01:03:44.791Z,0.00
2022-10-15T01:55:57.890Z,0.00
2022-10-15T02:01:12.003Z,0.00
2022-10-15T02:03:40.788Z,0.00
2022-10-15T02:06:08.081Z,0.00
2022-10-15T02:08:40.519Z,0.00
2022-10-15T02:24:08.297Z,0.00
2022-10-15T02:26:35.597Z,0.00
2022-10-15T02:26:59.058Z,0.00
2022-10-15T02:28:42.469Z,0.00
2022-10-15T02:29:35.603Z,0.00
2022-10-15T02:29:54.805Z,0.00
2022-10-15T02:30:59.476Z,0.00
2022-10-15T02:31:52.709Z,0.00
2022-10-15T02:33:32.379Z,0.00
2022-10-15T02:35:04.458Z,0.00
2022-10-15T02:35:27.958Z,0.00
2022-10-15T02:38:06.505Z,0.00
2022-10-15T02:38:55.030Z,0.00
2022-10-15T02:39:47.713Z,0.00
2022-10-15T02:41:19.751Z,0.00
2022-10-15T02:42:49.752Z,0.00
2022-10-15T02:42:54.862Z,0.00
2022-10-15T02:44:20.790Z,0.00
2022-10-15T02:47:17.747Z,0.00
2022-10-15T02:47:26.384Z,0.00
2022-10-15T02:48:42.826Z,0.00
2022-10-15T02:49:36.296Z,0.00
2022-10-15T02:51:46.725Z,0.00
2022-10-15T02:51:52.844Z,0.00
2022-10-15T02:53:57.706Z,0.00
2022-10-15T02:57:38.552Z,0.00
2022-10-15T03:01:29.711Z,0.00
2022-10-15T03:01:47.325Z,0.00
2022-10-15T03:07:44.072Z,0.00
2022-10-15T03:14:24.134Z,0.00
2022-10-15T03:15:03.973Z,0.00
2022-10-15T03:16:17.579Z,0.00
2022-10-15T03:20:04.617Z,0.00
2022-10-15T03:20:59.887Z,0.00
2022-10-15T03:21:16.714Z,0.00
2022-10-15T03:22:49.285Z,0.00
2022-10-15T03:28:40.182Z,0.00
2022-10-15T03:29:33.796Z,0.00
2022-10-15T03:31:04.339Z,0.00
2022-10-15T03:31:13.977Z,0.00
2022-10-15T03:35:31.297Z,0.00
2022-10-15T03:36:14.777Z,0.00
2022-10-15T03:40:17.727Z,0.00
2022-10-15T03:41:22.204Z,0.00
2022-10-15T03:42:23.117Z,0.00
2022-10-15T03:42:48.051Z,0.00
2022-10-15T03:43:30.511Z,0.00
2022-10-15T03:44:46.201Z,0.00
2022-10-15T03:46:25.421Z,0.00
2022-10-15T03:47:21.682Z,0.00
2022-10-15T03:48:35.325Z,0.00
2022-10-15T03:50:23.294Z,0.00
2022-10-15T03:55:38.836Z,0.00
2022-10-15T03:56:08.494Z,0.00
2022-10-15T04:06:46.849Z,0.00
2022-10-15T04:13:09.990Z,0.00
2022-10-15T04:18:44.462Z,0.00
2022-10-15T04:19:19.698Z,0.00
2022-10-15T04:20:49.233Z,0.00
2022-10-15T04:22:44.276Z,0.00
2022-10-15T04:24:37.351Z,0.00
2022-10-15T04:26:14.553Z,0.00
2022-10-15T04:26:22.226Z,0.00
2022-10-15T04:27:34.837Z,0.00
2022-10-15T04:29:19.195Z,0.00
2022-10-15T04:30:57.936Z,0.00
2022-10-15T04:32:19.747Z,0.00
2022-10-15T04:33:12.939Z,0.00
2022-10-15T04:33:32.439Z,0.00
2022-10-15T04:35:03.434Z,0.00
2022-10-15T04:35:31.561Z,0.00
2022-10-15T04:36:31.898Z,0.00
2022-10-15T04:37:25.008Z,0.00
2022-10-15T04:38:25.420Z,0.00
2022-10-15T04:39:24.427Z,0.00
2022-10-15T04:40:24.417Z,0.00
2022-10-15T04:41:24.390Z,0.00
2022-10-15T04:42:24.380Z,0.00
2022-10-15T04:43:24.398Z,0.00
2022-10-15T04:44:24.351Z,0.00
2022-10-15T04:46:24.323Z,0.00
2022-10-15T04:47:24.632Z,0.00
2022-10-15T04:48:24.296Z,0.00
2022-10-15T04:49:24.283Z,0.00
2022-10-15T04:50:24.283Z,0.00
2022-10-15T04:51:24.254Z,0.00
2022-10-15T04:52:24.234Z,0.00
2022-10-15T04:53:24.230Z,0.00
2022-10-15T04:54:24.259Z,0.00
2022-10-15T04:55:25.162Z,0.00
2022-10-15T04:56:24.185Z,0.00
2022-10-15T04:57:24.438Z,0.00
2022-10-15T04:58:24.162Z,0.00
2022-10-15T04:59:24.157Z,0.00
2022-10-15T05:00:24.155Z,2.00
2022-10-15T05:01:24.129Z,2.00
2022-10-15T05:02:24.293Z,0.00
2022-10-15T05:03:24.166Z,0.00
2022-10-15T05:04:24.077Z,0.00
2022-10-15T05:05:24.096Z,0.00
2022-10-15T05:06:24.068Z,0.00
2022-10-15T05:07:24.308Z,2.00
2022-10-15T05:08:24.029Z,1.00
2022-10-15T05:09:24.028Z,1.00
2022-10-15T05:10:24.009Z,3.00
2022-10-15T05:11:24.002Z,2.00
2022-10-15T05:12:23.977Z,13.00
2022-10-15T05:13:23.967Z,7.00
2022-10-15T05:14:23.957Z,10.00
2022-10-15T05:15:23.951Z,3.00
2022-10-15T05:16:23.931Z,6.00
2022-10-15T05:17:24.106Z,21.00
2022-10-15T05:18:23.901Z,19.00
2022-10-15T05:19:23.917Z,20.00
2022-10-15T05:20:23.893Z,24.00
2022-10-15T05:21:23.951Z,23.00
2022-10-15T05:22:24.010Z,27.00
2022-10-15T05:23:23.857Z,42.00
2022-10-15T05:24:23.819Z,45.00
2022-10-15T05:25:23.823Z,54.00
2022-10-15T05:26:23.794Z,61.00
2022-10-15T05:27:23.787Z,75.00
2022-10-15T05:28:23.850Z,77.00
2022-10-15T05:29:23.754Z,95.00
2022-10-15T05:30:23.764Z,89.00
2022-10-15T05:31:23.736Z,115.00
2022-10-15T05:33:23.704Z,131.00
2022-10-15T05:34:24.630Z,153.00
2022-10-15T05:35:23.687Z,158.00
2022-10-15T05:36:23.657Z,176.00
2022-10-15T05:37:23.817Z,184.00
2022-10-15T05:38:23.676Z,219.00
2022-10-15T05:39:23.619Z,241.00
2022-10-15T05:40:23.619Z,245.00
2022-10-15T05:41:23.597Z,264.00
2022-10-15T05:42:23.589Z,287.00
2022-10-15T05:43:23.593Z,316.00
2022-10-15T05:44:23.559Z,345.00
2022-10-15T05:45:23.549Z,365.00
2022-10-15T05:46:23.535Z,376.00
2022-10-15T05:47:23.835Z,374.00
2022-10-15T05:48:23.500Z,370.00
2022-10-15T05:49:23.492Z,365.00
2022-10-15T05:50:23.482Z,349.00
2022-10-15T05:51:23.464Z,327.00
2022-10-15T05:52:23.622Z,322.00
2022-10-15T05:53:23.524Z,313.00
2022-10-15T05:54:23.424Z,327.00
2022-10-15T05:55:23.413Z,345.00
2022-10-15T05:56:23.393Z,380.00
2022-10-15T05:57:23.383Z,430.00
2022-10-15T05:58:23.367Z,473.00
2022-10-15T05:59:23.364Z,516.00
2022-10-15T06:00:23.343Z,530.00
2022-10-15T06:01:23.325Z,534.00
2022-10-15T06:02:23.821Z,517.00
2022-10-15T06:03:23.305Z,505.00
2022-10-15T06:04:23.298Z,496.00
2022-10-15T06:05:23.273Z,465.00
2022-10-15T06:06:23.258Z,447.00
2022-10-15T06:07:23.538Z,426.00
2022-10-15T06:08:23.227Z,406.00
2022-10-15T06:09:23.234Z,418.00
2022-10-15T06:10:23.198Z,444.00
2022-10-15T06:11:23.192Z,485.00
2022-10-15T06:12:23.198Z,526.00
2022-10-15T06:13:23.232Z,581.00
2022-10-15T06:14:23.241Z,644.00
2022-10-15T06:15:23.141Z,715.00
2022-10-15T06:16:24.195Z,803.00
2022-10-15T06:17:23.253Z,881.00
2022-10-15T06:18:23.100Z,952.00
2022-10-15T06:19:23.090Z,1021.00
2022-10-15T06:20:23.060Z,1051.00
2022-10-15T06:21:23.059Z,1072.00
2022-10-15T06:22:23.031Z,1086.00
2022-10-15T06:23:23.030Z,1061.00
2022-10-15T06:24:23.022Z,1034.00
2022-10-15T06:25:23.003Z,983.00
2022-10-15T06:26:23.937Z,918.00
2022-10-15T06:27:23.248Z,876.00
2022-10-15T06:28:23.009Z,853.00
2022-10-15T06:29:22.964Z,884.00
2022-10-15T06:30:22.936Z,1001.00
2022-10-15T06:31:22.933Z,1158.00
2022-10-15T06:32:22.905Z,1341.00
2022-10-15T06:33:22.901Z,1526.00
2022-10-15T06:34:22.888Z,1650.00
2022-10-15T06:35:22.866Z,1726.00
2022-10-15T06:36:22.867Z,1755.00
2022-10-15T06:37:22.962Z,1717.00
2022-10-15T06:38:22.827Z,1663.00
2022-10-15T06:39:22.814Z,1628.00
2022-10-15T06:40:22.798Z,1593.00
2022-10-15T06:41:22.787Z,1547.00
2022-10-15T06:42:22.771Z,1566.00
2022-10-15T06:43:22.769Z,1682.00
2022-10-15T06:44:23.688Z,1835.00
2022-10-15T06:45:22.729Z,1940.00
2022-10-15T06:46:22.719Z,2021.00
2022-10-15T06:47:23.055Z,2110.00
2022-10-15T06:48:23.647Z,2191.00
2022-10-15T06:49:22.679Z,2265.00
2022-10-15T06:50:22.661Z,2323.00
2022-10-15T06:51:22.651Z,2389.00
2022-10-15T06:52:22.632Z,2475.00
2022-10-15T06:53:22.631Z,2558.00
2022-10-15T06:54:22.604Z,2627.00
2022-10-15T06:55:22.591Z,2626.00
2022-10-15T06:56:22.585Z,2546.00
2022-10-15T06:57:22.818Z,2361.00
2022-10-15T06:58:22.567Z,2219.00
2022-10-15T06:59:22.541Z,2167.00
2022-10-15T07:00:22.568Z,2202.00
2022-10-15T07:01:22.513Z,2247.00
2022-10-15T07:02:22.662Z,2201.00
2022-10-15T07:03:22.514Z,2116.00
2022-10-15T07:04:22.503Z,1981.00
2022-10-15T07:05:22.466Z,1843.00
2022-10-15T07:06:22.445Z,1672.00
2022-10-15T07:07:22.427Z,1481.00
2022-10-15T07:08:22.426Z,1295.00
2022-10-15T07:09:22.406Z,1100.00
2022-10-15T07:10:22.390Z,954.00
2022-10-15T07:11:22.379Z,873.00
2022-10-15T07:12:22.775Z,791.00
2022-10-15T07:13:22.366Z,737.00
2022-10-15T07:14:22.338Z,701.00
2022-10-15T07:15:23.281Z,676.00
2022-10-15T07:16:22.311Z,705.00
2022-10-15T07:17:22.302Z,749.00
2022-10-15T07:18:22.289Z,787.00
2022-10-15T07:19:22.267Z,800.00
2022-10-15T07:20:24.442Z,791.00
2022-10-15T07:21:22.243Z,809.00
2022-10-15T07:22:22.447Z,850.00
2022-10-15T07:23:25.602Z,970.00
2022-10-15T07:24:22.201Z,1062.00
2022-10-15T07:25:22.182Z,1161.00
2022-10-15T07:26:22.173Z,1291.00
2022-10-15T07:27:22.160Z,1452.00
2022-10-15T07:28:22.194Z,1641.00
2022-10-15T07:29:22.133Z,1751.00
2022-10-15T07:30:22.114Z,1804.00
2022-10-15T07:31:22.115Z,1860.00
2022-10-15T07:32:22.412Z,1938.00
2022-10-15T07:33:22.095Z,2049.00
2022-10-15T07:34:22.055Z,2192.00
2022-10-15T07:35:22.073Z,2383.00
2022-10-15T07:36:22.036Z,2604.00
2022-10-15T07:37:22.027Z,2838.00
2022-10-15T07:38:22.021Z,3078.00
2022-10-15T07:39:22.006Z,3244.00
2022-10-15T07:40:21.978Z,3287.00
2022-10-15T07:41:21.975Z,3235.00
2022-10-15T07:42:21.997Z,3146.00
2022-10-15T07:43:21.959Z,3096.00
2022-10-15T07:44:21.929Z,3108.00
2022-10-15T07:45:21.916Z,3257.00
2022-10-15T07:46:21.906Z,3547.00
2022-10-15T07:47:22.180Z,3929.00
2022-10-15T07:48:21.911Z,4298.00
2022-10-15T07:49:21.858Z,4596.00
2022-10-15T07:50:22.790Z,4856.00
2022-10-15T07:51:21.856Z,5009.00
2022-10-15T07:52:22.142Z,5073.00
2022-10-15T07:53:22.679Z,5116.00
2022-10-15T07:54:21.788Z,5118.00
2022-10-15T07:55:21.788Z,5076.00
2022-10-15T07:56:21.769Z,5040.00
2022-10-15T07:57:21.749Z,4996.00
2022-10-15T07:58:21.743Z,4897.00
2022-10-15T07:59:21.722Z,4860.00
2022-10-15T08:00:21.766Z,4772.00
2022-10-15T08:01:22.676Z,4719.00
2022-10-15T08:02:21.819Z,4678.00
2022-10-15T08:03:21.684Z,4657.00
2022-10-15T08:04:21.659Z,4695.00
2022-10-15T08:05:21.870Z,4802.00
2022-10-15T08:06:21.646Z,4990.00
2022-10-15T08:07:21.617Z,5271.00
2022-10-15T08:08:21.613Z,5642.00
2022-10-15T08:09:21.586Z,5950.00
2022-10-15T08:10:21.913Z,6079.00
2022-10-15T08:11:21.558Z,6029.00
2022-10-15T08:12:21.767Z,5838.00
2022-10-15T08:13:21.547Z,5634.00
2022-10-15T08:14:21.521Z,5463.00
2022-10-15T08:15:21.509Z,5412.00
2022-10-15T08:16:21.499Z,5472.00
2022-10-15T08:17:21.479Z,5639.00
2022-10-15T08:18:21.481Z,5919.00
2022-10-15T08:19:21.451Z,6241.00
2022-10-15T08:20:21.449Z,6480.00
2022-10-15T08:21:21.422Z,6544.00
2022-10-15T08:22:21.654Z,6547.00
2022-10-15T08:23:21.411Z,6527.00
2022-10-15T08:24:21.391Z,6433.00
2022-10-15T08:25:21.371Z,6250.00
2022-10-15T08:26:21.368Z,6036.00
2022-10-15T08:27:21.344Z,5652.00
2022-10-15T08:28:21.428Z,5210.00
2022-10-15T08:29:21.344Z,5102.00
2022-10-15T08:30:21.418Z,4939.00
2022-10-15T08:31:21.288Z,4812.00
2022-10-15T08:32:21.533Z,4673.00
2022-10-15T08:33:21.281Z,4522.00
2022-10-15T08:34:21.265Z,4365.00
2022-10-15T08:35:21.254Z,4205.00
2022-10-15T08:36:21.241Z,4019.00
2022-10-15T08:37:21.218Z,3879.00
2022-10-15T08:38:21.231Z,3712.00
2022-10-15T08:39:22.134Z,3574.00
2022-10-15T08:40:21.259Z,3506.00
2022-10-15T08:41:21.157Z,3461.00
2022-10-15T08:42:21.382Z,3302.00
2022-10-15T08:43:21.129Z,3234.00
2022-10-15T08:44:21.120Z,3164.00
2022-10-15T08:45:21.113Z,2924.00
2022-10-15T08:46:21.107Z,3084.00
2022-10-15T08:47:21.298Z,3162.00
2022-10-15T08:48:21.070Z,2862.00
2022-10-15T08:49:21.041Z,3372.00
2022-10-15T08:50:21.083Z,3532.00
2022-10-15T08:51:21.021Z,3600.00
2022-10-15T08:52:21.009Z,3738.00
2022-10-15T08:53:21.006Z,3714.00
2022-10-15T08:54:20.978Z,3691.00
2022-10-15T08:55:21.038Z,3710.00
2022-10-15T08:56:20.963Z,3576.00
2022-10-15T08:57:21.049Z,3559.00
2022-10-15T08:58:20.946Z,3562.00
2022-10-15T08:59:20.914Z,3784.00
2022-10-15T09:00:21.728Z,4122.00
2022-10-15T09:01:21.835Z,4147.00
2022-10-15T09:02:21.852Z,4049.00
2022-10-15T09:03:21.878Z,4330.00
2022-10-15T09:04:20.880Z,4387.00
2022-10-15T09:05:20.829Z,4490.00
2022-10-15T09:06:20.835Z,4695.00
2022-10-15T09:07:20.928Z,4905.00
2022-10-15T09:08:20.792Z,5062.00
2022-10-15T09:09:20.777Z,5401.00
2022-10-15T09:10:20.768Z,5776.00
2022-10-15T09:11:20.748Z,5956.00
2022-10-15T09:12:20.748Z,5967.00
2022-10-15T09:13:20.730Z,5994.00
2022-10-15T09:14:20.720Z,6188.00
2022-10-15T09:15:23.937Z,6299.00
2022-10-15T09:16:22.650Z,6879.00
2022-10-15T09:17:20.732Z,6941.00
2022-10-15T09:18:20.661Z,6969.00
2022-10-15T09:19:20.651Z,6808.00
2022-10-15T09:20:20.647Z,6516.00
2022-10-15T09:21:20.641Z,6170.00
2022-10-15T09:22:20.620Z,5600.00
2022-10-15T09:23:20.589Z,4770.00
2022-10-15T09:24:20.582Z,3758.00
2022-10-15T09:25:20.606Z,3099.00
2022-10-15T09:26:21.519Z,3045.00
2022-10-15T09:27:21.816Z,3436.00
2022-10-15T09:28:20.579Z,3831.00
2022-10-15T09:29:20.523Z,4069.00
2022-10-15T09:30:20.502Z,4475.00
2022-10-15T09:31:20.485Z,5065.00
2022-10-15T09:32:20.543Z,5771.00
2022-10-15T09:33:20.456Z,6309.00
2022-10-15T09:34:20.447Z,6590.00
2022-10-15T09:35:20.435Z,6382.00
2022-10-15T09:36:20.439Z,6045.00
2022-10-15T09:37:20.417Z,5652.00
2022-10-15T09:38:20.394Z,5528.00
2022-10-15T09:39:20.380Z,6023.00
2022-10-15T09:40:20.375Z,6504.00
2022-10-15T09:41:20.369Z,6436.00
2022-10-15T09:42:20.378Z,6226.00
2022-10-15T09:43:20.331Z,6351.00
2022-10-15T09:44:21.271Z,6260.00
2022-10-15T09:45:20.309Z,6061.00
2022-10-15T09:46:20.298Z,5962.00
2022-10-15T09:47:20.282Z,5927.00
2022-10-15T09:48:20.291Z,5900.00
2022-10-15T09:49:20.252Z,5457.00
2022-10-15T09:50:20.242Z,4904.00
2022-10-15T09:51:20.234Z,4554.00
2022-10-15T09:52:20.417Z,4371.00
2022-10-15T09:53:23.274Z,4678.00
2022-10-15T09:54:21.215Z,5321.00
2022-10-15T09:55:20.171Z,6092.00
2022-10-15T09:56:20.187Z,6526.00
2022-10-15T09:57:20.138Z,6917.00
2022-10-15T09:58:20.126Z,7130.00
2022-10-15T09:59:20.182Z,6936.00
2022-10-15T10:00:20.172Z,6788.00
2022-10-15T10:01:20.097Z,6926.00
2022-10-15T10:02:20.174Z,7060.00
2022-10-15T10:03:20.069Z,6923.00
2022-10-15T10:04:20.055Z,6657.00
2022-10-15T10:05:20.038Z,6376.00
2022-10-15T10:06:20.040Z,6122.00
2022-10-15T10:07:20.010Z,5947.00
2022-10-15T10:08:20.008Z,5919.00
2022-10-15T10:09:19.982Z,6000.00
2022-10-15T10:10:20.101Z,6001.00
2022-10-15T10:11:19.970Z,5624.00
2022-10-15T10:12:19.960Z,5806.00
2022-10-15T10:13:19.931Z,5792.00
2022-10-15T10:14:19.938Z,5438.00
2022-10-15T10:15:19.912Z,4488.00
2022-10-15T10:16:19.923Z,3951.00
2022-10-15T10:17:19.962Z,4342.00
2022-10-15T10:18:20.842Z,4107.00
2022-10-15T10:19:19.876Z,3807.00
2022-10-15T10:20:19.901Z,3833.00
2022-10-15T10:21:20.796Z,5475.00
2022-10-15T10:22:19.817Z,4979.00
2022-10-15T10:23:19.826Z,3898.00
2022-10-15T10:24:19.782Z,5352.00
2022-10-15T10:25:19.763Z,5706.00
2022-10-15T10:26:20.726Z,5861.00
2022-10-15T10:27:19.739Z,5743.00
2022-10-15T10:28:19.776Z,5860.00
2022-10-15T10:29:32.983Z,5549.00
2022-10-15T10:30:20.704Z,4050.00
2022-10-15T10:31:19.697Z,5628.00
2022-10-15T10:32:19.686Z,5673.00
2022-10-15T10:33:19.658Z,5896.00
2022-10-15T10:34:20.609Z,5789.00
2022-10-15T10:35:19.630Z,5687.00
2022-10-15T10:36:19.641Z,5779.00
2022-10-15T10:37:19.610Z,6119.00
2022-10-15T10:38:19.601Z,6312.00
2022-10-15T10:39:19.583Z,6527.00
2022-10-15T10:40:19.571Z,6034.00
2022-10-15T10:41:20.523Z,6377.00
2022-10-15T10:42:19.554Z,6722.00
2022-10-15T10:43:19.540Z,6678.00
2022-10-15T10:44:19.521Z,6156.00
2022-10-15T10:45:19.575Z,5796.00
2022-10-15T10:46:19.514Z,5961.00
2022-10-15T10:47:19.488Z,6180.00
2022-10-15T10:48:19.464Z,5986.00
2022-10-15T10:49:19.446Z,5910.00
2022-10-15T10:50:19.445Z,6239.00
2022-10-15T10:51:19.743Z,6069.00
2022-10-15T10:52:19.406Z,4146.00
2022-10-15T10:53:19.413Z,6222.00
2022-10-15T10:54:19.395Z,6009.00
2022-10-15T10:55:19.368Z,5844.00
2022-10-15T10:56:19.368Z,5352.00
2022-10-15T10:57:19.340Z,5060.00
2022-10-15T10:58:22.120Z,3753.00
2022-10-15T10:59:20.309Z,4009.00
2022-10-15T11:00:19.310Z,4171.00
2022-10-15T11:01:19.356Z,4170.00
2022-10-15T11:02:19.276Z,4142.00
2022-10-15T11:03:19.261Z,4207.00
2022-10-15T11:04:19.585Z,5924.00
2022-10-15T11:05:19.230Z,5880.00
2022-10-15T11:06:19.261Z,6229.00
2022-10-15T11:07:19.222Z,6777.00
2022-10-15T11:08:19.247Z,7208.00
2022-10-15T11:09:19.184Z,7408.00
2022-10-15T11:10:19.174Z,7559.00
2022-10-15T11:11:19.163Z,7212.00
2022-10-15T11:12:19.187Z,6680.00
2022-10-15T11:13:19.163Z,6343.00
2022-10-15T11:14:19.125Z,6762.00
2022-10-15T11:15:19.215Z,7303.00
2022-10-15T11:16:19.142Z,7714.00
2022-10-15T11:17:19.077Z,7928.00
2022-10-15T11:18:19.078Z,7838.00
2022-10-15T11:19:43.971Z,7871.00
2022-10-15T11:20:32.098Z,7978.00
2022-10-15T11:21:20.047Z,8015.00
2022-10-15T11:23:20.649Z,7731.00
2022-10-15T11:24:18.980Z,7244.00
2022-10-15T11:25:19.080Z,6619.00
2022-10-15T11:26:19.101Z,6071.00
2022-10-15T11:27:18.951Z,5529.00
2022-10-15T11:28:19.922Z,4838.00
2022-10-15T11:29:19.870Z,3908.00
2022-10-15T11:30:18.911Z,4314.00
2022-10-15T11:31:18.989Z,4381.00
2022-10-15T11:32:21.067Z,4074.00
2022-10-15T11:33:18.875Z,3413.00
2022-10-15T11:34:18.867Z,2990.00
2022-10-15T11:35:34.412Z,2680.00
2022-10-15T11:36:19.900Z,2619.00
2022-10-15T11:37:18.816Z,2676.00
2022-10-15T11:38:18.797Z,2530.00
2022-10-15T11:39:18.794Z,2164.00
2022-10-15T11:40:18.810Z,1941.00
2022-10-15T11:41:18.765Z,1981.00
2022-10-15T11:42:18.762Z,2153.00
2022-10-15T11:43:18.743Z,2532.00
2022-10-15T11:44:18.725Z,2697.00
2022-10-15T11:45:18.721Z,2321.00
2022-10-15T11:46:18.709Z,1901.00
2022-10-15T11:47:18.678Z,1620.00
2022-10-15T11:48:18.704Z,1459.00
2022-10-15T11:49:18.651Z,1300.00
2022-10-15T11:50:18.653Z,1095.00
2022-10-15T11:51:18.631Z,989.00
2022-10-15T11:52:18.620Z,1067.00
2022-10-15T11:53:18.600Z,1174.00
2022-10-15T11:54:18.599Z,1303.00
2022-10-15T11:55:18.599Z,1558.00
2022-10-15T11:56:18.576Z,1901.00
2022-10-15T11:57:18.540Z,2284.00
2022-10-15T11:58:18.543Z,2530.00
2022-10-15T11:59:18.533Z,2705.00
2022-10-15T12:00:18.553Z,2933.00
2022-10-15T12:01:18.495Z,3244.00
2022-10-15T12:02:18.496Z,3576.00
2022-10-15T12:03:18.524Z,3908.00
2022-10-15T12:04:18.580Z,4242.00
2022-10-15T12:05:18.445Z,4404.00
2022-10-15T12:06:18.431Z,4575.00
2022-10-15T12:07:18.415Z,4716.00
2022-10-15T12:08:18.406Z,5049.00
2022-10-15T12:09:19.337Z,5459.00
2022-10-15T12:10:18.387Z,5700.00
2022-10-15T12:11:18.367Z,5813.00
2022-10-15T12:12:19.159Z,5789.00
2022-10-15T12:13:18.338Z,5643.00
2022-10-15T12:14:18.319Z,5393.00
2022-10-15T12:15:18.320Z,5246.00
2022-10-15T12:16:18.295Z,5104.00
2022-10-15T12:17:18.279Z,4874.00
2022-10-15T12:18:18.279Z,4800.00
2022-10-15T12:19:18.260Z,5045.00
2022-10-15T12:20:18.274Z,5487.00
2022-10-15T12:21:18.231Z,5825.00
2022-10-15T12:22:18.222Z,6012.00
2022-10-15T12:23:18.211Z,5962.00
2022-10-15T12:24:18.192Z,6127.00
2022-10-15T12:25:18.183Z,5957.00
2022-10-15T12:26:18.177Z,5896.00
2022-10-15T12:27:18.153Z,5604.00
2022-10-15T12:28:18.196Z,4388.00
2022-10-15T12:29:18.124Z,5403.00
2022-10-15T12:30:18.136Z,5873.00
2022-10-15T12:31:18.096Z,5843.00
2022-10-15T12:32:18.085Z,5356.00
2022-10-15T12:33:19.032Z,4971.00
2022-10-15T12:34:18.056Z,4981.00
2022-10-15T12:35:18.103Z,5045.00
2022-10-15T12:36:18.029Z,4448.00
2022-10-15T12:37:18.027Z,4242.00
2022-10-15T12:38:17.997Z,5369.00
2022-10-15T12:39:27.802Z,4440.00
2022-10-15T12:40:18.978Z,5330.00
2022-10-15T12:41:17.969Z,5096.00
2022-10-15T12:42:17.949Z,4895.00
2022-10-15T12:43:17.941Z,4764.00
2022-10-15T12:44:17.956Z,4964.00
2022-10-15T12:45:17.934Z,5673.00
2022-10-15T12:46:17.923Z,5590.00
2022-10-15T12:47:17.890Z,5111.00
2022-10-15T12:48:17.874Z,4776.00
2022-10-15T12:49:17.860Z,4747.00
2022-10-15T12:50:17.873Z,4848.00
2022-10-15T12:51:17.831Z,4217.00
2022-10-15T12:52:17.814Z,5543.00
2022-10-15T12:53:17.803Z,5497.00
2022-10-15T12:54:17.801Z,5387.00
2022-10-15T12:55:17.788Z,4881.00
2022-10-15T12:56:17.778Z,5094.00
2022-10-15T12:57:17.751Z,3967.00
2022-10-15T12:58:17.735Z,4564.00
2022-10-15T12:59:17.735Z,3680.00
2022-10-15T13:00:17.717Z,4441.00
2022-10-15T13:01:17.786Z,4454.00
2022-10-15T13:02:17.685Z,4638.00
2022-10-15T13:03:17.669Z,4272.00
2022-10-15T13:04:17.665Z,3694.00
2022-10-15T13:05:17.647Z,3478.00
2022-10-15T13:06:17.638Z,3219.00
2022-10-15T13:07:17.618Z,2885.00
2022-10-15T13:08:17.599Z,3189.00
2022-10-15T13:09:17.609Z,3364.00
2022-10-15T13:10:17.580Z,3479.00
2022-10-15T13:11:17.570Z,3495.00
2022-10-15T13:12:17.552Z,4302.00
2022-10-15T13:13:17.549Z,3772.00
2022-10-15T13:14:17.547Z,4344.00
2022-10-15T13:15:17.531Z,4751.00
2022-10-15T13:16:17.522Z,5312.00
2022-10-15T13:17:17.500Z,5737.00
2022-10-15T13:18:17.513Z,5842.00
2022-10-15T13:19:17.473Z,5888.00
2022-10-15T13:20:17.443Z,4955.00
2022-10-15T13:21:17.431Z,4653.00
2022-10-15T13:22:17.414Z,4954.00
2022-10-15T13:23:29.349Z,5621.00
2022-10-15T13:24:18.402Z,5824.00
2022-10-15T13:25:17.386Z,5795.00
2022-10-15T13:26:17.375Z,5159.00
2022-10-15T13:27:18.306Z,5750.00
2022-10-15T13:28:17.375Z,5534.00
2022-10-15T13:29:17.340Z,4567.00
2022-10-15T13:30:17.384Z,4312.00
2022-10-15T13:31:17.300Z,4508.00
2022-10-15T13:32:17.308Z,4448.00
2022-10-15T13:33:17.279Z,4632.00
2022-10-15T13:34:17.268Z,4933.00
2022-10-15T13:35:17.251Z,4911.00
2022-10-15T13:36:17.248Z,4816.00
2022-10-15T13:37:17.220Z,4351.00
2022-10-15T13:38:17.222Z,3981.00
2022-10-15T13:39:17.201Z,3835.00
2022-10-15T13:40:17.176Z,3928.00
2022-10-15T13:41:17.189Z,3931.00
2022-10-15T13:42:18.098Z,3755.00
2022-10-15T13:43:17.144Z,4233.00
2022-10-15T13:44:17.133Z,4469.00
2022-10-15T13:45:18.098Z,4327.00
2022-10-15T13:46:17.104Z,3755.00
2022-10-15T13:47:17.084Z,3512.00
2022-10-15T13:48:17.074Z,4072.00
2022-10-15T13:49:17.073Z,4202.00
2022-10-15T13:50:17.047Z,4543.00
2022-10-15T13:51:17.040Z,4716.00
2022-10-15T13:52:17.016Z,4663.00
2022-10-15T13:53:17.011Z,4621.00
2022-10-15T13:54:16.997Z,4891.00
2022-10-15T13:55:16.979Z,5053.00
2022-10-15T13:56:17.925Z,4945.00
2022-10-15T13:57:16.955Z,4755.00
2022-10-15T13:58:16.949Z,4217.00
2022-10-15T13:59:16.939Z,4050.00
2022-10-15T14:00:16.910Z,3838.00
2022-10-15T14:01:16.968Z,3656.00
2022-10-15T14:02:16.882Z,3611.00
2022-10-15T14:03:16.883Z,3975.00
2022-10-15T14:04:16.866Z,4009.00
2022-10-15T14:05:16.842Z,4278.00
2022-10-15T14:06:16.842Z,4441.00
2022-10-15T14:07:16.824Z,4486.00
2022-10-15T14:08:16.802Z,4318.00
2022-10-15T14:09:16.809Z,4030.00
2022-10-15T14:10:16.773Z,3614.00
2022-10-15T14:11:16.781Z,3131.00
2022-10-15T14:12:16.753Z,2648.00
2022-10-15T14:13:16.744Z,2297.00
2022-10-15T14:14:16.745Z,2212.00
2022-10-15T14:15:16.725Z,2027.00
2022-10-15T14:16:16.713Z,2013.00
2022-10-15T14:17:16.686Z,1685.00
2022-10-15T14:18:16.669Z,1607.00
2022-10-15T14:19:16.704Z,1590.00
2022-10-15T14:20:31.885Z,1704.00
2022-10-15T14:21:17.638Z,2145.00
2022-10-15T14:22:16.617Z,2598.00
2022-10-15T14:23:16.609Z,2951.00
2022-10-15T14:24:16.599Z,3156.00
2022-10-15T14:25:16.595Z,3288.00
2022-10-15T14:26:16.579Z,3325.00
2022-10-15T14:27:16.573Z,3346.00
2022-10-15T14:28:16.556Z,3237.00
2022-10-15T14:29:16.541Z,2996.00
2022-10-15T14:30:17.461Z,2836.00
2022-10-15T14:31:16.501Z,2996.00
2022-10-15T14:32:16.482Z,3111.00
2022-10-15T14:33:16.472Z,3351.00
2022-10-15T14:35:16.462Z,3814.00
2022-10-15T14:36:16.473Z,3896.00
2022-10-15T14:37:17.383Z,3967.00
2022-10-15T14:38:16.423Z,3852.00
2022-10-15T14:39:16.418Z,3640.00
2022-10-15T14:40:16.391Z,3312.00
2022-10-15T14:41:16.375Z,3127.00
2022-10-15T14:42:16.356Z,2913.00
2022-10-15T14:43:16.423Z,2762.00
2022-10-15T14:44:17.284Z,2701.00
2022-10-15T14:45:17.277Z,2746.00
2022-10-15T14:46:16.308Z,2784.00
2022-10-15T14:47:16.298Z,2981.00
2022-10-15T14:48:16.296Z,3005.00
2022-10-15T14:49:16.268Z,2903.00
2022-10-15T14:50:16.250Z,2776.00
2022-10-15T14:51:16.239Z,2560.00
2022-10-15T14:52:16.218Z,2293.00
2022-10-15T14:53:16.238Z,2019.00
2022-10-15T14:54:16.201Z,1840.00
2022-10-15T14:55:16.183Z,1763.00
2022-10-15T14:56:16.182Z,1658.00
2022-10-15T14:57:16.159Z,1578.00
2022-10-15T14:58:16.154Z,1515.00
2022-10-15T14:59:16.133Z,1443.00
2022-10-15T15:00:16.113Z,1377.00
2022-10-15T15:01:16.103Z,1290.00
2022-10-15T15:02:16.096Z,1262.00
2022-10-15T15:03:16.139Z,1305.00
2022-10-15T15:04:16.064Z,1399.00
2022-10-15T15:05:16.052Z,1549.00
2022-10-15T15:06:16.046Z,1709.00
2022-10-15T15:07:16.056Z,1855.00
2022-10-15T15:08:16.046Z,1932.00
2022-10-15T15:09:16.007Z,1894.00
2022-10-15T15:10:15.986Z,1806.00
2022-10-15T15:11:15.984Z,1701.00
2022-10-15T15:12:15.976Z,1674.00
2022-10-15T15:13:15.958Z,1648.00
2022-10-15T15:14:15.940Z,1598.00
2022-10-15T15:15:15.935Z,1519.00
2022-10-15T15:16:15.921Z,1436.00
2022-10-15T15:17:15.890Z,1358.00
2022-10-15T15:18:15.886Z,1265.00
2022-10-15T15:19:15.871Z,1192.00
2022-10-15T15:20:15.860Z,1120.00
2022-10-15T15:21:15.841Z,1072.00
2022-10-15T15:22:15.831Z,1062.00
2022-10-15T15:23:15.826Z,1090.00
2022-10-15T15:24:15.801Z,1134.00
2022-10-15T15:25:15.783Z,1141.00